Izki — V7XV2 — position and weather

sailwx.info

Track history (hours):
 
Tides and Currents Weather Stations Pressure Air Temp Water Temp Dewpoint Dewpoint Depression Visibility Wind Speed Wind Dir Waves Ship Positions

Izki

Last reported at 2015-Mar-01 10:14 UTC. Time now 2015-Mar-04 15:20 UTC.
Position N 07°37' W 015°50'.

Length 333 m; draft 21.1 m.

Type: Tanker. MMSI: 538004578.

Date/timePositionNaut miles runAvg speedWind from/ knotsBaromVisibWave heightAir tempDewpointWater temp
2015-Mar-01 10:14N 07°37' W 015°50'9912.9
2015-Mar-01 02:32N 08°57' W 016°51'1413.1
2015-Mar-01 01:28N 09°08' W 016°59'6713.0
2015-Feb-28 20:18N 10°01' W 017°40'8712.9
2015-Feb-28 13:33N 11°22' W 018°13'1312.9
2015-Feb-28 12:33N 11°34' W 018°18'44612.6
2015-Feb-27 01:16N 18°60' W 018°30'8712.7
2015-Feb-26 18:23N 20°27' W 018°30'4912.7
2015-Feb-26 14:31N 21°16' W 018°23'  
2015-Feb-22 23:31N 38°45' W 012°07'  
2015-Feb-20 00:31N 50°15' W 001°18'1412.8
2015-Feb-19 23:26N 50°19' W 000°57'1010.2
2015-Feb-19 22:26N 50°21' W 000°42'9 9.1
2015-Feb-19 21:28N 50°24' W 000°28'11 9.1
2015-Feb-19 20:15N 50°27' W 000°12'710.1
2015-Feb-19 19:33N 50°29' W 000°01'1111.5
2015-Feb-19 18:33N 50°32' E 000°16'1312.9
2015-Feb-19 17:33N 50°36' E 000°35'1313.3
2015-Feb-19 16:33N 50°43' E 000°53'1312.7
2015-Feb-19 15:33N 50°50' E 001°10'1111.0
2015-Feb-19 14:33N 50°58' E 001°22'9 9.0
2015-Feb-19 13:33N 51°04' E 001°32'7 7.4
2015-Feb-19 12:34N 51°10' E 001°41'8 7.7
2015-Feb-19 11:33N 51°16' E 001°48'10 9.5
2015-Feb-19 10:33N 51°24' E 001°56'  
Track history (hours):
 
Tides and Currents Weather Stations Pressure Air Temp Water Temp Dewpoint Dewpoint Depression Visibility Wind Speed Wind Dir Waves Ship Positions

Izki

Last reported at 2015-Mar-01 10:14 UTC. Time now 2015-Mar-04 15:20 UTC.
Position N 07°37' W 015°50'.

Length 333 m; draft 21.1 m.

Type: Tanker. MMSI: 538004578.

Date/timePositionNaut miles runAvg speedWind from/ knotsBaromVisibWave heightAir tempDewpointWater temp
2015-Mar-01 10:14N 07°37' W 015°50'9912.9
2015-Mar-01 02:32N 08°57' W 016°51'1413.1
2015-Mar-01 01:28N 09°08' W 016°59'6713.0
2015-Feb-28 20:18N 10°01' W 017°40'8712.9
2015-Feb-28 13:33N 11°22' W 018°13'1312.9
2015-Feb-28 12:33N 11°34' W 018°18'44612.6
2015-Feb-27 01:16N 18°60' W 018°30'8712.7
2015-Feb-26 18:23N 20°27' W 018°30'4912.7
2015-Feb-26 14:31N 21°16' W 018°23'  
2015-Feb-22 23:31N 38°45' W 012°07'  
2015-Feb-20 00:31N 50°15' W 001°18'1412.8
2015-Feb-19 23:26N 50°19' W 000°57'1010.2
2015-Feb-19 22:26N 50°21' W 000°42'9 9.1
2015-Feb-19 21:28N 50°24' W 000°28'11 9.1
2015-Feb-19 20:15N 50°27' W 000°12'710.1
2015-Feb-19 19:33N 50°29' W 000°01'1111.5
2015-Feb-19 18:33N 50°32' E 000°16'1312.9
2015-Feb-19 17:33N 50°36' E 000°35'1313.3
2015-Feb-19 16:33N 50°43' E 000°53'1312.7
2015-Feb-19 15:33N 50°50' E 001°10'1111.0
2015-Feb-19 14:33N 50°58' E 001°22'9 9.0
2015-Feb-19 13:33N 51°04' E 001°32'7 7.4
2015-Feb-19 12:34N 51°10' E 001°41'8 7.7
2015-Feb-19 11:33N 51°16' E 001°48'10 9.5
2015-Feb-19 10:33N 51°24' E 001°56'  

Dump ship's entire track history